sensor_id;sensor_type;location;lat;lon;timestamp;P1;durP1;ratioP1;P2;durP2;ratioP2
69485;SDS011;56677;51.710;5.366;2022-10-16T07:16:18;3.58;;;2.58;;
69485;SDS011;56677;51.710;5.366;2022-10-16T07:18:43;2.78;;;1.77;;
69485;SDS011;56677;51.710;5.366;2022-10-16T07:21:09;2.60;;;2.10;;
69485;SDS011;56677;51.710;5.366;2022-10-16T07:23:35;2.78;;;1.85;;
69485;SDS011;56677;51.710;5.366;2022-10-16T07:26:00;3.17;;;1.47;;
69485;SDS011;56677;51.710;5.366;2022-10-16T07:28:26;4.30;;;2.37;;
69485;SDS011;56677;51.710;5.366;2022-10-16T07:30:51;3.33;;;2.20;;
69485;SDS011;56677;51.710;5.366;2022-10-16T07:33:18;3.03;;;1.70;;
69485;SDS011;56677;51.710;5.366;2022-10-16T07:35:53;3.65;;;2.10;;
69485;SDS011;56677;51.710;5.366;2022-10-16T07:38:19;3.20;;;2.20;;
69485;SDS011;56677;51.710;5.366;2022-10-16T07:40:44;3.30;;;1.87;;
69485;SDS011;56677;51.710;5.366;2022-10-16T07:43:10;3.80;;;1.93;;
69485;SDS011;56677;51.710;5.366;2022-10-16T07:45:35;4.43;;;1.80;;
69485;SDS011;56677;51.710;5.366;2022-10-16T07:48:00;4.43;;;1.80;;
69485;SDS011;56677;51.710;5.366;2022-10-16T07:50:25;3.08;;;1.95;;
69485;SDS011;56677;51.710;5.366;2022-10-16T07:52:51;4.70;;;1.90;;
69485;SDS011;56677;51.710;5.366;2022-10-16T07:55:16;3.27;;;1.67;;
69485;SDS011;56677;51.710;5.366;2022-10-16T07:57:41;4.50;;;2.03;;
69485;SDS011;56677;51.710;5.366;2022-10-16T08:00:07;2.88;;;1.80;;
69485;SDS011;56677;51.710;5.366;2022-10-16T08:02:32;3.47;;;1.70;;
69485;SDS011;56677;51.710;5.366;2022-10-16T08:04:57;4.17;;;1.50;;
69485;SDS011;56677;51.710;5.366;2022-10-16T08:07:22;2.58;;;1.80;;
69485;SDS011;56677;51.710;5.366;2022-10-16T08:09:51;2.85;;;1.58;;
69485;SDS011;56677;51.710;5.366;2022-10-16T08:12:16;3.33;;;2.20;;
69485;SDS011;56677;51.710;5.366;2022-10-16T08:14:41;3.08;;;1.70;;
69485;SDS011;56677;51.710;5.366;2022-10-16T08:17:06;3.67;;;1.90;;
69485;SDS011;56677;51.710;5.366;2022-10-16T08:19:31;2.70;;;1.60;;
69485;SDS011;56677;51.710;5.366;2022-10-16T08:21:57;3.40;;;1.87;;
69485;SDS011;56677;51.710;5.366;2022-10-16T08:24:22;4.38;;;1.70;;
69485;SDS011;56677;51.710;5.366;2022-10-16T08:26:47;4.32;;;1.20;;
69485;SDS011;56677;51.710;5.366;2022-10-16T08:29:13;3.67;;;1.98;;
69485;SDS011;56677;51.710;5.366;2022-10-16T08:31:38;3.37;;;1.90;;
69485;SDS011;56677;51.710;5.366;2022-10-16T08:34:03;6.10;;;2.10;;
69485;SDS011;56677;51.710;5.366;2022-10-16T08:36:28;5.47;;;2.60;;
69485;SDS011;56677;51.710;5.366;2022-10-16T08:38:53;8.03;;;1.90;;
69485;SDS011;56677;51.710;5.366;2022-10-16T08:41:32;5.65;;;1.73;;
69485;SDS011;56677;51.710;5.366;2022-10-16T08:48:55;7.32;;;2.20;;
69485;SDS011;56677;51.710;5.366;2022-10-16T08:51:23;5.65;;;2.10;;
69485;SDS011;56677;51.710;5.366;2022-10-16T08:53:50;6.17;;;1.80;;
69485;SDS011;56677;51.710;5.366;2022-10-16T08:56:17;6.47;;;2.00;;
69485;SDS011;56677;51.710;5.366;2022-10-16T08:58:42;7.75;;;2.13;;
69485;SDS011;56677;51.710;5.366;2022-10-16T09:01:12;4.47;;;1.83;;
69485;SDS011;56677;51.710;5.366;2022-10-16T09:08:49;6.55;;;2.00;;
69485;SDS011;56677;51.710;5.366;2022-10-16T09:13:58;6.75;;;1.70;;
69485;SDS011;56677;51.710;5.366;2022-10-16T09:16:30;5.73;;;1.93;;
69485;SDS011;56677;51.710;5.366;2022-10-16T09:21:31;5.65;;;1.80;;
69485;SDS011;56677;51.710;5.366;2022-10-16T09:24:00;4.53;;;1.92;;
69485;SDS011;56677;51.710;5.366;2022-10-16T09:26:29;4.60;;;1.75;;
69485;SDS011;56677;51.710;5.366;2022-10-16T09:28:54;5.15;;;1.83;;
69485;SDS011;56677;51.710;5.366;2022-10-16T09:31:20;5.43;;;2.00;;
69485;SDS011;56677;51.710;5.366;2022-10-16T09:33:51;6.85;;;1.90;;
69485;SDS011;56677;51.710;5.366;2022-10-16T09:36:17;4.93;;;2.05;;
69485;SDS011;56677;51.710;5.366;2022-10-16T09:38:43;4.80;;;1.33;;
69485;SDS011;56677;51.710;5.366;2022-10-16T09:41:26;4.65;;;1.90;;
69485;SDS011;56677;51.710;5.366;2022-10-16T09:43:55;5.90;;;1.80;;
69485;SDS011;56677;51.710;5.366;2022-10-16T09:46:21;7.70;;;1.67;;
69485;SDS011;56677;51.710;5.366;2022-10-16T09:48:48;4.60;;;1.92;;
69485;SDS011;56677;51.710;5.366;2022-10-16T09:51:17;6.32;;;1.67;;
69485;SDS011;56677;51.710;5.366;2022-10-16T09:53:44;7.85;;;1.50;;
69485;SDS011;56677;51.710;5.366;2022-10-16T09:56:10;7.40;;;2.30;;
69485;SDS011;56677;51.710;5.366;2022-10-16T09:58:36;3.90;;;1.63;;
69485;SDS011;56677;51.710;5.366;2022-10-16T10:01:01;5.05;;;1.80;;
69485;SDS011;56677;51.710;5.366;2022-10-16T10:03:31;4.57;;;1.80;;
69485;SDS011;56677;51.710;5.366;2022-10-16T10:06:00;5.22;;;1.67;;
69485;SDS011;56677;51.710;5.366;2022-10-16T10:08:26;4.35;;;2.13;;
69485;SDS011;56677;51.710;5.366;2022-10-16T10:10:51;7.83;;;2.13;;
69485;SDS011;56677;51.710;5.366;2022-10-16T10:13:17;6.47;;;1.90;;
69485;SDS011;56677;51.710;5.366;2022-10-16T10:15:42;7.73;;;1.50;;
69485;SDS011;56677;51.710;5.366;2022-10-16T10:18:17;7.57;;;1.70;;
69485;SDS011;56677;51.710;5.366;2022-10-16T10:20:43;6.63;;;1.60;;
69485;SDS011;56677;51.710;5.366;2022-10-16T10:23:21;4.67;;;2.40;;
69485;SDS011;56677;51.710;5.366;2022-10-16T10:28:24;6.68;;;3.53;;
69485;SDS011;56677;51.710;5.366;2022-10-16T10:31:05;6.80;;;3.65;;
69485;SDS011;56677;51.710;5.366;2022-10-16T10:36:04;6.03;;;3.22;;
69485;SDS011;56677;51.710;5.366;2022-10-16T10:41:18;6.55;;;3.50;;
69485;SDS011;56677;51.710;5.366;2022-10-16T10:43:53;5.20;;;3.13;;
69485;SDS011;56677;51.710;5.366;2022-10-16T10:51:31;8.73;;;2.88;;
69485;SDS011;56677;51.710;5.366;2022-10-16T10:54:04;5.32;;;2.90;;
69485;SDS011;56677;51.710;5.366;2022-10-16T11:05:05;5.32;;;2.55;;
69485;SDS011;56677;51.710;5.366;2022-10-16T11:07:02;4.47;;;2.42;;
69485;SDS011;56677;51.710;5.366;2022-10-16T11:09:36;3.80;;;2.85;;
69485;SDS011;56677;51.710;5.366;2022-10-16T11:12:05;4.95;;;2.85;;
69485;SDS011;56677;51.710;5.366;2022-10-16T11:14:34;7.38;;;2.90;;
69485;SDS011;56677;51.710;5.366;2022-10-16T11:17:13;7.30;;;2.67;;
69485;SDS011;56677;51.710;5.366;2022-10-16T11:19:57;4.95;;;2.70;;
69485;SDS011;56677;51.710;5.366;2022-10-16T11:27:45;3.90;;;2.10;;
69485;SDS011;56677;51.710;5.366;2022-10-16T11:30:20;4.83;;;2.00;;
69485;SDS011;56677;51.710;5.366;2022-10-16T11:35:19;5.78;;;2.10;;
69485;SDS011;56677;51.710;5.366;2022-10-16T11:37:46;7.28;;;2.65;;
69485;SDS011;56677;51.710;5.366;2022-10-16T11:40:28;4.93;;;2.72;;
69485;SDS011;56677;51.710;5.366;2022-10-16T11:42:57;3.97;;;2.40;;
69485;SDS011;56677;51.710;5.366;2022-10-16T11:45:29;11.88;;;2.78;;
69485;SDS011;56677;51.710;5.366;2022-10-16T11:55:45;4.35;;;2.33;;
69485;SDS011;56677;51.710;5.366;2022-10-16T12:03:23;5.13;;;2.10;;
69485;SDS011;56677;51.710;5.366;2022-10-16T12:08:25;6.90;;;2.60;;
69485;SDS011;56677;51.710;5.366;2022-10-16T12:10:51;4.45;;;1.98;;
69485;SDS011;56677;51.710;5.366;2022-10-16T12:13:36;5.57;;;2.10;;
69485;SDS011;56677;51.710;5.366;2022-10-16T12:16:36;4.97;;;2.00;;
69485;SDS011;56677;51.710;5.366;2022-10-16T12:19:02;4.50;;;2.03;;
69485;SDS011;56677;51.710;5.366;2022-10-16T12:21:30;4.38;;;2.10;;
69485;SDS011;56677;51.710;5.366;2022-10-16T12:23:56;5.85;;;2.13;;
69485;SDS011;56677;51.710;5.366;2022-10-16T12:26:23;5.47;;;1.97;;
69485;SDS011;56677;51.710;5.366;2022-10-16T12:28:49;5.45;;;2.00;;
69485;SDS011;56677;51.710;5.366;2022-10-16T12:31:14;4.72;;;2.10;;
69485;SDS011;56677;51.710;5.366;2022-10-16T12:33:40;4.40;;;2.05;;
69485;SDS011;56677;51.710;5.366;2022-10-16T12:41:11;5.73;;;1.77;;
69485;SDS011;56677;51.710;5.366;2022-10-16T12:48:36;3.83;;;1.92;;
69485;SDS011;56677;51.710;5.366;2022-10-16T12:51:11;5.90;;;1.90;;
69485;SDS011;56677;51.710;5.366;2022-10-16T12:53:37;7.43;;;2.13;;
69485;SDS011;56677;51.710;5.366;2022-10-16T12:56:09;4.30;;;1.80;;
69485;SDS011;56677;51.710;5.366;2022-10-16T12:59:00;4.43;;;1.87;;
69485;SDS011;56677;51.710;5.366;2022-10-16T13:19:25;5.68;;;1.95;;
69485;SDS011;56677;51.710;5.366;2022-10-16T13:22:00;5.25;;;1.70;;
69485;SDS011;56677;51.710;5.366;2022-10-16T13:24:33;6.22;;;2.05;;
69485;SDS011;56677;51.710;5.366;2022-10-16T13:29:46;4.70;;;1.87;;
69485;SDS011;56677;51.710;5.366;2022-10-16T13:32:17;5.25;;;1.80;;
69485;SDS011;56677;51.710;5.366;2022-10-16T13:34:45;3.30;;;1.80;;
69485;SDS011;56677;51.710;5.366;2022-10-16T13:37:18;4.13;;;1.73;;
69485;SDS011;56677;51.710;5.366;2022-10-16T13:39:43;3.90;;;1.75;;
69485;SDS011;56677;51.710;5.366;2022-10-16T13:42:13;4.83;;;1.60;;
69485;SDS011;56677;51.710;5.366;2022-10-16T13:44:40;3.35;;;2.10;;
69485;SDS011;56677;51.710;5.366;2022-10-16T13:47:10;5.35;;;1.77;;
69485;SDS011;56677;51.710;5.366;2022-10-16T13:49:37;4.63;;;1.80;;
69485;SDS011;56677;51.710;5.366;2022-10-16T13:52:02;8.48;;;2.33;;
69485;SDS011;56677;51.710;5.366;2022-10-16T13:54:28;3.57;;;1.90;;
69485;SDS011;56677;51.710;5.366;2022-10-16T13:56:53;3.90;;;1.93;;
69485;SDS011;56677;51.710;5.366;2022-10-16T13:59:25;3.05;;;1.42;;
69485;SDS011;56677;51.710;5.366;2022-10-16T14:01:51;4.47;;;1.73;;
69485;SDS011;56677;51.710;5.366;2022-10-16T14:04:17;5.43;;;1.95;;
69485;SDS011;56677;51.710;5.366;2022-10-16T14:06:43;3.60;;;1.70;;
69485;SDS011;56677;51.710;5.366;2022-10-16T14:09:14;3.45;;;1.77;;
69485;SDS011;56677;51.710;5.366;2022-10-16T14:11:46;3.67;;;1.60;;
69485;SDS011;56677;51.710;5.366;2022-10-16T14:14:13;3.85;;;1.58;;
69485;SDS011;56677;51.710;5.366;2022-10-16T14:16:39;4.57;;;1.80;;
69485;SDS011;56677;51.710;5.366;2022-10-16T14:19:05;3.78;;;1.58;;
69485;SDS011;56677;51.710;5.366;2022-10-16T14:21:31;4.00;;;1.70;;
69485;SDS011;56677;51.710;5.366;2022-10-16T14:23:56;5.57;;;1.83;;
69485;SDS011;56677;51.710;5.366;2022-10-16T14:26:22;3.27;;;1.83;;
69485;SDS011;56677;51.710;5.366;2022-10-16T14:28:48;3.22;;;1.52;;
69485;SDS011;56677;51.710;5.366;2022-10-16T14:31:22;5.93;;;1.90;;
69485;SDS011;56677;51.710;5.366;2022-10-16T14:33:48;2.97;;;1.52;;
69485;SDS011;56677;51.710;5.366;2022-10-16T14:36:14;3.40;;;2.03;;
69485;SDS011;56677;51.710;5.366;2022-10-16T14:38:48;5.28;;;1.75;;
69485;SDS011;56677;51.710;5.366;2022-10-16T14:41:13;4.18;;;1.92;;
69485;SDS011;56677;51.710;5.366;2022-10-16T14:43:40;6.20;;;1.77;;
69485;SDS011;56677;51.710;5.366;2022-10-16T14:46:16;4.28;;;1.90;;
69485;SDS011;56677;51.710;5.366;2022-10-16T14:48:46;3.58;;;1.80;;
69485;SDS011;56677;51.710;5.366;2022-10-16T14:51:14;4.65;;;1.95;;
69485;SDS011;56677;51.710;5.366;2022-10-16T14:53:40;6.50;;;1.77;;
69485;SDS011;56677;51.710;5.366;2022-10-16T14:56:09;6.47;;;1.30;;
69485;SDS011;56677;51.710;5.366;2022-10-16T14:58:39;5.10;;;1.17;;
69485;SDS011;56677;51.710;5.366;2022-10-16T15:01:04;4.75;;;1.73;;
69485;SDS011;56677;51.710;5.366;2022-10-16T15:03:29;4.77;;;1.70;;
69485;SDS011;56677;51.710;5.366;2022-10-16T15:05:54;5.20;;;1.60;;
69485;SDS011;56677;51.710;5.366;2022-10-16T15:08:19;4.18;;;2.00;;
69485;SDS011;56677;51.710;5.366;2022-10-16T15:10:45;3.03;;;1.70;;
69485;SDS011;56677;51.710;5.366;2022-10-16T15:13:13;5.30;;;1.65;;
69485;SDS011;56677;51.710;5.366;2022-10-16T15:15:41;4.13;;;1.67;;
69485;SDS011;56677;51.710;5.366;2022-10-16T15:18:06;3.15;;;1.30;;
69485;SDS011;56677;51.710;5.366;2022-10-16T15:20:35;5.50;;;1.87;;
69485;SDS011;56677;51.710;5.366;2022-10-16T15:23:01;5.40;;;1.55;;
69485;SDS011;56677;51.710;5.366;2022-10-16T15:25:31;4.88;;;1.60;;
69485;SDS011;56677;51.710;5.366;2022-10-16T15:27:56;6.00;;;1.50;;
69485;SDS011;56677;51.710;5.366;2022-10-16T15:30:21;3.78;;;1.90;;
69485;SDS011;56677;51.710;5.366;2022-10-16T15:32:46;4.75;;;1.65;;
69485;SDS011;56677;51.710;5.366;2022-10-16T15:35:12;7.33;;;1.90;;
69485;SDS011;56677;51.710;5.366;2022-10-16T15:37:37;4.43;;;1.70;;
69485;SDS011;56677;51.710;5.366;2022-10-16T15:40:02;4.63;;;1.70;;
69485;SDS011;56677;51.710;5.366;2022-10-16T15:42:27;5.77;;;1.60;;
69485;SDS011;56677;51.710;5.366;2022-10-16T15:44:52;7.22;;;2.08;;
69485;SDS011;56677;51.710;5.366;2022-10-16T15:47:19;3.50;;;1.58;;
69485;SDS011;56677;51.710;5.366;2022-10-16T15:49:44;5.73;;;1.70;;
69485;SDS011;56677;51.710;5.366;2022-10-16T15:52:09;4.17;;;1.20;;
69485;SDS011;56677;51.710;5.366;2022-10-16T15:54:34;4.47;;;2.08;;
69485;SDS011;56677;51.710;5.366;2022-10-16T15:57:00;4.95;;;1.60;;
69485;SDS011;56677;51.710;5.366;2022-10-16T15:59:25;5.13;;;2.03;;
69485;SDS011;56677;51.710;5.366;2022-10-16T16:01:50;4.32;;;1.67;;
69485;SDS011;56677;51.710;5.366;2022-10-16T16:04:15;4.60;;;1.40;;
69485;SDS011;56677;51.710;5.366;2022-10-16T16:06:40;5.93;;;2.00;;
69485;SDS011;56677;51.710;5.366;2022-10-16T16:09:05;4.53;;;1.90;;
69485;SDS011;56677;51.710;5.366;2022-10-16T16:11:30;4.43;;;1.63;;
69485;SDS011;56677;51.710;5.366;2022-10-16T16:13:56;4.10;;;1.60;;
69485;SDS011;56677;51.710;5.366;2022-10-16T16:16:21;3.87;;;1.70;;
69485;SDS011;56677;51.710;5.366;2022-10-16T16:18:46;4.07;;;1.43;;
69485;SDS011;56677;51.710;5.366;2022-10-16T16:21:12;4.50;;;1.63;;
69485;SDS011;56677;51.710;5.366;2022-10-16T16:23:37;5.80;;;1.90;;
69485;SDS011;56677;51.710;5.366;2022-10-16T16:28:34;4.25;;;1.75;;
69485;SDS011;56677;51.710;5.366;2022-10-16T16:30:59;5.17;;;1.90;;
69485;SDS011;56677;51.710;5.366;2022-10-16T16:33:24;5.22;;;1.98;;
69485;SDS011;56677;51.710;5.366;2022-10-16T16:35:49;3.47;;;1.67;;
69485;SDS011;56677;51.710;5.366;2022-10-16T16:38:14;4.60;;;1.80;;
69485;SDS011;56677;51.710;5.366;2022-10-16T16:40:39;4.63;;;2.00;;
69485;SDS011;56677;51.710;5.366;2022-10-16T16:43:05;2.72;;;1.60;;
69485;SDS011;56677;51.710;5.366;2022-10-16T16:45:30;5.37;;;1.83;;
69485;SDS011;56677;51.710;5.366;2022-10-16T16:47:55;4.93;;;1.90;;
69485;SDS011;56677;51.710;5.366;2022-10-16T16:50:20;4.53;;;2.03;;
69485;SDS011;56677;51.710;5.366;2022-10-16T16:52:45;3.85;;;1.25;;
69485;SDS011;56677;51.710;5.366;2022-10-16T16:55:10;3.90;;;1.70;;
69485;SDS011;56677;51.710;5.366;2022-10-16T16:57:36;5.03;;;1.90;;
69485;SDS011;56677;51.710;5.366;2022-10-16T17:00:01;4.53;;;1.87;;
69485;SDS011;56677;51.710;5.366;2022-10-16T17:02:26;7.07;;;2.20;;
69485;SDS011;56677;51.710;5.366;2022-10-16T17:04:51;3.53;;;1.40;;
69485;SDS011;56677;51.710;5.366;2022-10-16T17:07:16;4.13;;;2.00;;
69485;SDS011;56677;51.710;5.366;2022-10-16T17:09:41;3.63;;;1.97;;
69485;SDS011;56677;51.710;5.366;2022-10-16T17:12:07;4.83;;;1.47;;
69485;SDS011;56677;51.710;5.366;2022-10-16T17:14:32;3.63;;;1.55;;
69485;SDS011;56677;51.710;5.366;2022-10-16T17:16:57;3.07;;;1.77;;
69485;SDS011;56677;51.710;5.366;2022-10-16T17:19:22;4.10;;;1.50;;
69485;SDS011;56677;51.710;5.366;2022-10-16T17:21:48;6.05;;;1.60;;
69485;SDS011;56677;51.710;5.366;2022-10-16T17:24:13;3.93;;;1.77;;
69485;SDS011;56677;51.710;5.366;2022-10-16T17:26:38;6.13;;;2.00;;
69485;SDS011;56677;51.710;5.366;2022-10-16T17:29:04;4.63;;;2.07;;
69485;SDS011;56677;51.710;5.366;2022-10-16T17:31:30;3.28;;;1.90;;
69485;SDS011;56677;51.710;5.366;2022-10-16T17:33:57;2.75;;;1.67;;
69485;SDS011;56677;51.710;5.366;2022-10-16T17:36:22;3.33;;;1.50;;
69485;SDS011;56677;51.710;5.366;2022-10-16T17:38:47;4.27;;;1.70;;
69485;SDS011;56677;51.710;5.366;2022-10-16T17:41:17;4.33;;;1.70;;
69485;SDS011;56677;51.710;5.366;2022-10-16T17:43:43;4.18;;;1.50;;
69485;SDS011;56677;51.710;5.366;2022-10-16T17:46:08;3.73;;;1.97;;
69485;SDS011;56677;51.710;5.366;2022-10-16T17:48:40;3.40;;;1.63;;
69485;SDS011;56677;51.710;5.366;2022-10-16T17:51:06;3.90;;;1.70;;
69485;SDS011;56677;51.710;5.366;2022-10-16T17:53:32;4.28;;;1.70;;
69485;SDS011;56677;51.710;5.366;2022-10-16T17:56:00;5.25;;;1.90;;
69485;SDS011;56677;51.710;5.366;2022-10-16T17:58:26;5.70;;;1.90;;
69485;SDS011;56677;51.710;5.366;2022-10-16T18:00:51;4.37;;;1.70;;
69485;SDS011;56677;51.710;5.366;2022-10-16T18:03:16;4.03;;;1.98;;
69485;SDS011;56677;51.710;5.366;2022-10-16T18:05:41;4.43;;;1.90;;
69485;SDS011;56677;51.710;5.366;2022-10-16T18:08:06;3.33;;;1.60;;
69485;SDS011;56677;51.710;5.366;2022-10-16T18:10:31;5.80;;;2.00;;
69485;SDS011;56677;51.710;5.366;2022-10-16T18:12:56;3.05;;;1.77;;
69485;SDS011;56677;51.710;5.366;2022-10-16T18:15:21;3.77;;;1.80;;
69485;SDS011;56677;51.710;5.366;2022-10-16T18:17:47;6.53;;;2.00;;
69485;SDS011;56677;51.710;5.366;2022-10-16T18:20:12;5.25;;;1.70;;
69485;SDS011;56677;51.710;5.366;2022-10-16T18:22:37;4.18;;;2.08;;
69485;SDS011;56677;51.710;5.366;2022-10-16T18:25:03;3.03;;;1.40;;
69485;SDS011;56677;51.710;5.366;2022-10-16T18:27:29;3.45;;;1.75;;
69485;SDS011;56677;51.710;5.366;2022-10-16T18:29:54;3.47;;;1.80;;
69485;SDS011;56677;51.710;5.366;2022-10-16T18:32:19;3.08;;;1.90;;
69485;SDS011;56677;51.710;5.366;2022-10-16T18:34:44;5.55;;;1.60;;
69485;SDS011;56677;51.710;5.366;2022-10-16T18:37:10;3.60;;;1.40;;
69485;SDS011;56677;51.710;5.366;2022-10-16T18:39:35;4.27;;;1.80;;
69485;SDS011;56677;51.710;5.366;2022-10-16T18:42:00;3.53;;;1.70;;
69485;SDS011;56677;51.710;5.366;2022-10-16T18:44:25;4.70;;;1.60;;
69485;SDS011;56677;51.710;5.366;2022-10-16T18:46:51;3.75;;;1.50;;
69485;SDS011;56677;51.710;5.366;2022-10-16T18:49:16;3.00;;;1.37;;
69485;SDS011;56677;51.710;5.366;2022-10-16T18:51:41;4.43;;;1.45;;
69485;SDS011;56677;51.710;5.366;2022-10-16T18:54:07;3.05;;;1.42;;
69485;SDS011;56677;51.710;5.366;2022-10-16T18:56:32;4.47;;;1.67;;
69485;SDS011;56677;51.710;5.366;2022-10-16T18:58:58;5.10;;;1.80;;
69485;SDS011;56677;51.710;5.366;2022-10-16T19:01:25;3.25;;;1.60;;
69485;SDS011;56677;51.710;5.366;2022-10-16T19:03:54;3.70;;;1.88;;
69485;SDS011;56677;51.710;5.366;2022-10-16T19:06:20;4.47;;;2.05;;
69485;SDS011;56677;51.710;5.366;2022-10-16T19:08:45;4.63;;;1.80;;
69485;SDS011;56677;51.710;5.366;2022-10-16T19:11:12;3.20;;;1.60;;
69485;SDS011;56677;51.710;5.366;2022-10-16T19:13:37;5.53;;;2.00;;
69485;SDS011;56677;51.710;5.366;2022-10-16T19:16:03;4.38;;;1.95;;
69485;SDS011;56677;51.710;5.366;2022-10-16T19:18:28;7.57;;;2.70;;
69485;SDS011;56677;51.710;5.366;2022-10-16T19:20:53;4.55;;;2.13;;
69485;SDS011;56677;51.710;5.366;2022-10-16T19:23:19;4.15;;;1.80;;
69485;SDS011;56677;51.710;5.366;2022-10-16T19:25:44;4.63;;;2.00;;
69485;SDS011;56677;51.710;5.366;2022-10-16T19:28:09;5.17;;;2.10;;
69485;SDS011;56677;51.710;5.366;2022-10-16T19:30:35;3.93;;;1.80;;
69485;SDS011;56677;51.710;5.366;2022-10-16T19:33:00;4.15;;;1.52;;
69485;SDS011;56677;51.710;5.366;2022-10-16T19:35:25;4.03;;;1.80;;
69485;SDS011;56677;51.710;5.366;2022-10-16T19:37:50;4.50;;;1.60;;
69485;SDS011;56677;51.710;5.366;2022-10-16T19:40:15;11.93;;;2.13;;
69485;SDS011;56677;51.710;5.366;2022-10-16T19:42:41;4.73;;;2.00;;
69485;SDS011;56677;51.710;5.366;2022-10-16T19:45:06;5.22;;;2.10;;
69485;SDS011;56677;51.710;5.366;2022-10-16T19:47:31;6.17;;;2.27;;
69485;SDS011;56677;51.710;5.366;2022-10-16T19:49:56;16.43;;;2.83;;
69485;SDS011;56677;51.710;5.366;2022-10-16T19:52:21;4.90;;;1.75;;
69485;SDS011;56677;51.710;5.366;2022-10-16T19:54:47;8.52;;;2.28;;
69485;SDS011;56677;51.710;5.366;2022-10-16T19:57:12;5.53;;;2.37;;
69485;SDS011;56677;51.710;5.366;2022-10-16T19:59:37;6.17;;;2.27;;
69485;SDS011;56677;51.710;5.366;2022-10-16T20:02:02;5.97;;;2.10;;
69485;SDS011;56677;51.710;5.366;2022-10-16T20:04:27;5.73;;;2.07;;
69485;SDS011;56677;51.710;5.366;2022-10-16T20:06:52;7.90;;;2.75;;
69485;SDS011;56677;51.710;5.366;2022-10-16T20:09:17;6.70;;;2.60;;
69485;SDS011;56677;51.710;5.366;2022-10-16T20:11:43;5.70;;;2.40;;
69485;SDS011;56677;51.710;5.366;2022-10-16T20:14:08;8.13;;;2.73;;
69485;SDS011;56677;51.710;5.366;2022-10-16T20:16:33;5.77;;;2.10;;
69485;SDS011;56677;51.710;5.366;2022-10-16T20:18:58;4.55;;;2.30;;
69485;SDS011;56677;51.710;5.366;2022-10-16T20:21:25;7.10;;;2.50;;
69485;SDS011;56677;51.710;5.366;2022-10-16T20:23:50;6.68;;;2.17;;
69485;SDS011;56677;51.710;5.366;2022-10-16T20:26:16;6.03;;;1.90;;
69485;SDS011;56677;51.710;5.366;2022-10-16T20:28:42;8.10;;;2.43;;
69485;SDS011;56677;51.710;5.366;2022-10-16T20:31:08;7.60;;;2.05;;
69485;SDS011;56677;51.710;5.366;2022-10-16T20:33:33;5.20;;;1.98;;
69485;SDS011;56677;51.710;5.366;2022-10-16T20:35:59;4.90;;;2.10;;
69485;SDS011;56677;51.710;5.366;2022-10-16T20:38:24;8.10;;;2.25;;
69485;SDS011;56677;51.710;5.366;2022-10-16T20:40:49;4.07;;;2.00;;
69485;SDS011;56677;51.710;5.366;2022-10-16T20:43:15;5.88;;;2.15;;
69485;SDS011;56677;51.710;5.366;2022-10-16T20:45:40;4.32;;;2.17;;
69485;SDS011;56677;51.710;5.366;2022-10-16T20:48:06;6.10;;;2.53;;
69485;SDS011;56677;51.710;5.366;2022-10-16T20:50:31;6.45;;;2.20;;
69485;SDS011;56677;51.710;5.366;2022-10-16T20:52:57;5.47;;;2.13;;
69485;SDS011;56677;51.710;5.366;2022-10-16T20:55:22;4.40;;;1.70;;
69485;SDS011;56677;51.710;5.366;2022-10-16T20:57:47;4.97;;;2.30;;
69485;SDS011;56677;51.710;5.366;2022-10-16T21:00:13;7.60;;;2.33;;
69485;SDS011;56677;51.710;5.366;2022-10-16T21:02:38;5.20;;;2.37;;
69485;SDS011;56677;51.710;5.366;2022-10-16T21:05:03;5.53;;;1.93;;
69485;SDS011;56677;51.710;5.366;2022-10-16T21:07:28;5.67;;;2.07;;
69485;SDS011;56677;51.710;5.366;2022-10-16T21:09:54;6.78;;;2.53;;
69485;SDS011;56677;51.710;5.366;2022-10-16T21:12:20;5.63;;;2.20;;
69485;SDS011;56677;51.710;5.366;2022-10-16T21:14:45;4.83;;;2.13;;
69485;SDS011;56677;51.710;5.366;2022-10-16T21:17:10;4.70;;;2.30;;
